Neuburg — 5BQJ2 — position and weather

sailwx.info

Track history (hours):
 
Tides and Currents Weather Stations Pressure Air Temp Water Temp Dewpoint Dewpoint Depression Visibility Wind Speed Wind Dir Waves Ship Positions

Neuburg

Last reported at 2016-Jul-29 08:22 UTC. Time now 2016-Jul-29 10:13 UTC.
Position N 42°29' E 005°37'.

Length 142 m; draft 5.8 m.

Type: Cargo ship. MMSI: 212740000.

Date/timePositionNaut miles runAvg speedWind from/ knotsBaromVisibWave heightAir tempDewpointWater temp
2016-Jul-29 08:22N 42°29' E 005°37'3516.7
2016-Jul-29 06:16N 42°44' E 006°19'1417.3
2016-Jul-29 05:28N 42°50' E 006°37'1617.4
2016-Jul-29 04:33N 42°57' E 006°56'1717.3
2016-Jul-29 03:33N 43°09' E 007°13'1717.1
2016-Jul-29 02:33N 43°21' E 007°30'3817.3
2016-Jul-29 00:22N 43°46' E 008°08'1417.4
2016-Jul-28 23:33N 43°56' E 008°23'1717.2
2016-Jul-28 22:33N 44°08' E 008°40'1717.0
2016-Jul-28 21:33N 44°19' E 008°57'6 5.8
2016-Jul-28 20:33N 44°24' E 008°53'0 0.0
2016-Jul-28 19:30N 44°24' E 008°53'0 0.0
2016-Jul-28 18:33N 44°24' E 008°53'0 0.0
2016-Jul-28 17:33N 44°24' E 008°53'0 0.0
2016-Jul-28 16:30N 44°24' E 008°53'0 0.0
2016-Jul-28 15:33N 44°24' E 008°53'0 0.0
2016-Jul-28 14:33N 44°24' E 008°53'0 0.0
2016-Jul-28 13:33N 44°24' E 008°53'0 0.0
2016-Jul-28 12:33N 44°24' E 008°53'0 0.0
2016-Jul-28 11:33N 44°24' E 008°53'0 0.0
2016-Jul-28 10:33N 44°24' E 008°53'0 0.0
2016-Jul-28 09:33N 44°24' E 008°53'0 0.0
2016-Jul-28 08:33N 44°24' E 008°53'0 0.0
2016-Jul-28 07:33N 44°24' E 008°53'0 0.0
2016-Jul-28 06:33N 44°24' E 008°53'0 0.0
2016-Jul-28 05:33N 44°24' E 008°53'1 1.1
2016-Jul-28 04:33N 44°24' E 008°54'5 5.4
2016-Jul-28 03:33N 44°19' E 008°58'1111.1
2016-Jul-28 02:33N 44°12' E 008°46'1312.7
2016-Jul-28 01:33N 44°03' E 008°33'1413.9
2016-Jul-28 00:34N 43°53' E 008°19'1414.0
2016-Jul-27 23:33N 43°44' E 008°05'2014.3
2016-Jul-27 22:09N 43°30' E 007°45'814.2
2016-Jul-27 21:33N 43°25' E 007°36'1414.3
2016-Jul-27 20:33N 43°15' E 007°21'1514.4
2016-Jul-27 19:33N 43°05' E 007°07'1414.2
2016-Jul-27 18:32N 42°56' E 006°52'1414.4
2016-Jul-27 17:33N 42°46' E 006°38'1614.5
2016-Jul-27 16:28N 42°40' E 006°18'1615.0
2016-Jul-27 15:23N 42°33' E 005°58'1316.2
2016-Jul-27 14:33N 42°28' E 005°41'1816.6
2016-Jul-27 13:28N 42°21' E 005°19'9716.3
2016-Jul-27 07:32N 41°41' E 003°20'1616.4
2016-Jul-27 06:33N 41°34' E 003°01'1716.9
2016-Jul-27 05:33N 41°27' E 002°40'1716.8
2016-Jul-27 04:33N 41°20' E 002°20'7 6.3
2016-Jul-27 03:22N 41°21' E 002°10'0 0.0
2016-Jul-27 02:22N 41°21' E 002°10'0 0.0
2016-Jul-26 17:22N 41°21' E 002°10'2 2.2
2016-Jul-26 16:33N 41°20' E 002°10'1413.7
2016-Jul-26 15:33N 41°07' E 002°05'1616.2
2016-Jul-26 14:32N 40°52' E 001°55'1616.3
2016-Jul-26 13:33N 40°38' E 001°46'1616.5
2016-Jul-26 12:33N 40°23' E 001°36'1716.6
2016-Jul-26 11:33N 40°08' E 001°26'1716.5
2016-Jul-26 10:33N 39°54' E 001°15'6616.6
2016-Jul-26 06:33N 38°55' E 000°36'1816.6
2016-Jul-26 05:27N 38°39' E 000°24'2016.9
2016-Jul-26 04:18N 38°29' E 000°03'1316.9
2016-Jul-26 03:33N 38°23' W 000°11'14 2.0
2016-Jul-25 20:18N 38°14' W 000°26'1215.9
2016-Jul-25 19:33N 38°02' W 000°24'1616.6
2016-Jul-25 18:33N 37°46' W 000°28'1615.8
2016-Jul-25 17:33N 37°31' W 000°35'1616.2
2016-Jul-25 16:33N 37°20' W 000°50'1615.9
2016-Jul-25 15:32N 37°09' W 001°05'20914.9
2016-Jul-25 01:32N 36°01' W 005°10'1616.8
2016-Jul-25 00:34N 35°56' W 005°30'10114.4
2016-Jul-24 17:33N 34°58' W 007°11'2014.8
2016-Jul-24 16:11N 34°45' W 007°30'1015.5
2016-Jul-24 15:33N 34°39' W 007°39'1615.8
2016-Jul-24 14:33N 34°29' W 007°54'3615.9
2016-Jul-24 12:17N 34°05' W 008°27'1515.8
2016-Jul-24 11:18N 33°56' W 008°41'3215.4
2016-Jul-24 09:12N 33°35' W 009°11'13314.9
2016-Jul-24 00:20N 32°08' W 011°11'1214.4
2016-Jul-23 23:31N 32°01' W 011°21'1614.6
2016-Jul-23 22:27N 31°51' W 011°35'1414.8
2016-Jul-23 21:31N 31°42' W 011°48'1414.7
2016-Jul-23 20:32N 31°32' W 012°00'15914.5
2016-Jul-23 09:33N 29°49' W 014°21'1514.0
2016-Jul-23 08:28N 29°39' W 014°34'1313.9
2016-Jul-23 07:33N 29°30' W 014°45'1413.8
2016-Jul-23 06:31N 29°21' W 014°57'2713.5
2016-Jul-23 04:32N 29°04' W 015°20'1313.3
2016-Jul-23 03:33N 28°55' W 015°32'1413.7
2016-Jul-23 02:33N 28°47' W 015°44'1413.8
2016-Jul-23 01:33N 28°38' W 015°56'1414.1
2016-Jul-23 00:33N 28°29' W 016°09'4 1.0
2016-Jul-22 20:28N 28°29' W 016°13'1 0.4
2016-Jul-22 18:21N 28°29' W 016°14'6 7.1
2016-Jul-22 17:33N 28°26' W 016°08'1515.0
2016-Jul-22 16:34N 28°21' W 015°52'1615.7
2016-Jul-22 15:34N 28°16' W 015°35'1413.8
2016-Jul-22 14:34N 28°09' W 015°22'3 2.5
2016-Jul-22 13:33N 28°08' W 015°25'0 0.0
2016-Jul-22 12:33N 28°08' W 015°25'0 0.0
2016-Jul-22 11:33N 28°08' W 015°25'0 0.0
2016-Jul-22 10:32N 28°08' W 015°25'0 0.0
2016-Jul-22 09:32N 28°08' W 015°25'0 0.0
2016-Jul-22 08:32N 28°08' W 015°25'0 0.0
2016-Jul-22 07:32N 28°08' W 015°25'1 0.4
2016-Jul-22 04:33N 28°07' W 015°24'1312.7
2016-Jul-22 03:33N 28°13' W 015°12'1515.1
2016-Jul-22 02:33N 28°21' W 014°57'1515.2
2016-Jul-22 01:33N 28°28' W 014°42'1514.7
2016-Jul-22 00:33N 28°35' W 014°27'1514.7
2016-Jul-21 23:33N 28°42' W 014°12'1514.6
2016-Jul-21 22:33N 28°48' W 013°57'1414.1
2016-Jul-21 21:33N 28°52' W 013°41'1010.1
2016-Jul-21 20:31N 28°58' W 013°32'0 0.0
2016-Jul-21 19:31N 28°58' W 013°32'0 0.0
2016-Jul-21 18:31N 28°58' W 013°32'0 0.0
2016-Jul-21 17:31N 28°58' W 013°32'0 0.0
2016-Jul-21 16:31N 28°58' W 013°32'0 0.0
2016-Jul-21 15:31N 28°58' W 013°32'0 0.0
2016-Jul-21 14:25N 28°58' W 013°32'0 0.0
2016-Jul-21 13:31N 28°58' W 013°32'0 0.0
2016-Jul-21 12:22N 28°58' W 013°32'0 0.0
2016-Jul-21 11:19N 28°58' W 013°32'0 0.0
2016-Jul-21 10:19N 28°58' W 013°32'0 0.0
2016-Jul-21 09:22N 28°58' W 013°32'0 0.0
2016-Jul-21 08:16N 28°58' W 013°32'0 0.0
2016-Jul-21 07:28N 28°58' W 013°32'0 0.0
2016-Jul-21 06:19N 28°58' W 013°32'0 0.0
2016-Jul-21 05:31N 28°58' W 013°32'0 0.0
2016-Jul-21 04:31N 28°58' W 013°32'0 0.0
2016-Jul-21 03:31N 28°58' W 013°32'0 0.0
2016-Jul-21 02:13N 28°58' W 013°32'0 0.0
2016-Jul-21 01:31N 28°58' W 013°32'0 0.0
2016-Jul-21 00:31N 28°58' W 013°32'0 0.0
2016-Jul-20 23:31N 28°58' W 013°32'0 0.0
2016-Jul-20 22:22N 28°58' W 013°32'1 1.4
2016-Jul-20 21:33N 28°57' W 013°32'1111.0
2016-Jul-20 20:33N 28°51' W 013°43'1615.3
2016-Jul-20 19:31N 28°47' W 014°00'1614.6
2016-Jul-20 18:26N 28°40' W 014°16'1314.8
2016-Jul-20 17:33N 28°34' W 014°29'1515.1
2016-Jul-20 16:33N 28°27' W 014°45'1615.5
2016-Jul-20 15:33N 28°20' W 015°00'1615.5
2016-Jul-20 14:33N 28°11' W 015°15'10 9.2
2016-Jul-20 13:31N 28°08' W 015°25'0 0.0
2016-Jul-20 12:31N 28°08' W 015°25'0 0.0
2016-Jul-20 11:31N 28°08' W 015°25'0 0.0
2016-Jul-20 10:31N 28°08' W 015°25'0 0.0
2016-Jul-20 09:31N 28°08' W 015°25'0 0.0
2016-Jul-20 08:31N 28°08' W 015°25'0 0.0
2016-Jul-20 07:31N 28°08' W 015°25'0 0.0
2016-Jul-20 06:31N 28°08' W 015°25'0 0.0
2016-Jul-20 05:31N 28°08' W 015°25'1 1.5
2016-Jul-20 04:34N 28°08' W 015°23'  
Track history (hours):
 
Tides and Currents Weather Stations Pressure Air Temp Water Temp Dewpoint Dewpoint Depression Visibility Wind Speed Wind Dir Waves Ship Positions

Neuburg

Last reported at 2016-Jul-29 08:22 UTC. Time now 2016-Jul-29 10:13 UTC.
Position N 42°29' E 005°37'.

Length 142 m; draft 5.8 m.

Type: Cargo ship. MMSI: 212740000.

Date/timePositionNaut miles runAvg speedWind from/ knotsBaromVisibWave heightAir tempDewpointWater temp
2016-Jul-29 08:22N 42°29' E 005°37'3516.7
2016-Jul-29 06:16N 42°44' E 006°19'1417.3
2016-Jul-29 05:28N 42°50' E 006°37'1617.4
2016-Jul-29 04:33N 42°57' E 006°56'1717.3
2016-Jul-29 03:33N 43°09' E 007°13'1717.1
2016-Jul-29 02:33N 43°21' E 007°30'3817.3
2016-Jul-29 00:22N 43°46' E 008°08'1417.4
2016-Jul-28 23:33N 43°56' E 008°23'1717.2
2016-Jul-28 22:33N 44°08' E 008°40'1717.0
2016-Jul-28 21:33N 44°19' E 008°57'6 5.8
2016-Jul-28 20:33N 44°24' E 008°53'0 0.0
2016-Jul-28 19:30N 44°24' E 008°53'0 0.0
2016-Jul-28 18:33N 44°24' E 008°53'0 0.0
2016-Jul-28 17:33N 44°24' E 008°53'0 0.0
2016-Jul-28 16:30N 44°24' E 008°53'0 0.0
2016-Jul-28 15:33N 44°24' E 008°53'0 0.0
2016-Jul-28 14:33N 44°24' E 008°53'0 0.0
2016-Jul-28 13:33N 44°24' E 008°53'0 0.0
2016-Jul-28 12:33N 44°24' E 008°53'0 0.0
2016-Jul-28 11:33N 44°24' E 008°53'0 0.0
2016-Jul-28 10:33N 44°24' E 008°53'0 0.0
2016-Jul-28 09:33N 44°24' E 008°53'0 0.0
2016-Jul-28 08:33N 44°24' E 008°53'0 0.0
2016-Jul-28 07:33N 44°24' E 008°53'0 0.0
2016-Jul-28 06:33N 44°24' E 008°53'0 0.0
2016-Jul-28 05:33N 44°24' E 008°53'1 1.1
2016-Jul-28 04:33N 44°24' E 008°54'5 5.4
2016-Jul-28 03:33N 44°19' E 008°58'1111.1
2016-Jul-28 02:33N 44°12' E 008°46'1312.7
2016-Jul-28 01:33N 44°03' E 008°33'1413.9
2016-Jul-28 00:34N 43°53' E 008°19'1414.0
2016-Jul-27 23:33N 43°44' E 008°05'2014.3
2016-Jul-27 22:09N 43°30' E 007°45'814.2
2016-Jul-27 21:33N 43°25' E 007°36'1414.3
2016-Jul-27 20:33N 43°15' E 007°21'1514.4
2016-Jul-27 19:33N 43°05' E 007°07'1414.2
2016-Jul-27 18:32N 42°56' E 006°52'1414.4
2016-Jul-27 17:33N 42°46' E 006°38'1614.5
2016-Jul-27 16:28N 42°40' E 006°18'1615.0
2016-Jul-27 15:23N 42°33' E 005°58'1316.2
2016-Jul-27 14:33N 42°28' E 005°41'1816.6
2016-Jul-27 13:28N 42°21' E 005°19'9716.3
2016-Jul-27 07:32N 41°41' E 003°20'1616.4
2016-Jul-27 06:33N 41°34' E 003°01'1716.9
2016-Jul-27 05:33N 41°27' E 002°40'1716.8
2016-Jul-27 04:33N 41°20' E 002°20'7 6.3
2016-Jul-27 03:22N 41°21' E 002°10'0 0.0
2016-Jul-27 02:22N 41°21' E 002°10'0 0.0
2016-Jul-26 17:22N 41°21' E 002°10'2 2.2
2016-Jul-26 16:33N 41°20' E 002°10'1413.7
2016-Jul-26 15:33N 41°07' E 002°05'1616.2
2016-Jul-26 14:32N 40°52' E 001°55'1616.3
2016-Jul-26 13:33N 40°38' E 001°46'1616.5
2016-Jul-26 12:33N 40°23' E 001°36'1716.6
2016-Jul-26 11:33N 40°08' E 001°26'1716.5
2016-Jul-26 10:33N 39°54' E 001°15'6616.6
2016-Jul-26 06:33N 38°55' E 000°36'1816.6
2016-Jul-26 05:27N 38°39' E 000°24'2016.9
2016-Jul-26 04:18N 38°29' E 000°03'1316.9
2016-Jul-26 03:33N 38°23' W 000°11'14 2.0
2016-Jul-25 20:18N 38°14' W 000°26'1215.9
2016-Jul-25 19:33N 38°02' W 000°24'1616.6
2016-Jul-25 18:33N 37°46' W 000°28'1615.8
2016-Jul-25 17:33N 37°31' W 000°35'1616.2
2016-Jul-25 16:33N 37°20' W 000°50'1615.9
2016-Jul-25 15:32N 37°09' W 001°05'20914.9
2016-Jul-25 01:32N 36°01' W 005°10'1616.8
2016-Jul-25 00:34N 35°56' W 005°30'10114.4
2016-Jul-24 17:33N 34°58' W 007°11'2014.8
2016-Jul-24 16:11N 34°45' W 007°30'1015.5
2016-Jul-24 15:33N 34°39' W 007°39'1615.8
2016-Jul-24 14:33N 34°29' W 007°54'3615.9
2016-Jul-24 12:17N 34°05' W 008°27'1515.8
2016-Jul-24 11:18N 33°56' W 008°41'3215.4
2016-Jul-24 09:12N 33°35' W 009°11'13314.9
2016-Jul-24 00:20N 32°08' W 011°11'1214.4
2016-Jul-23 23:31N 32°01' W 011°21'1614.6
2016-Jul-23 22:27N 31°51' W 011°35'1414.8
2016-Jul-23 21:31N 31°42' W 011°48'1414.7
2016-Jul-23 20:32N 31°32' W 012°00'15914.5
2016-Jul-23 09:33N 29°49' W 014°21'1514.0
2016-Jul-23 08:28N 29°39' W 014°34'1313.9
2016-Jul-23 07:33N 29°30' W 014°45'1413.8
2016-Jul-23 06:31N 29°21' W 014°57'2713.5
2016-Jul-23 04:32N 29°04' W 015°20'1313.3
2016-Jul-23 03:33N 28°55' W 015°32'1413.7
2016-Jul-23 02:33N 28°47' W 015°44'1413.8
2016-Jul-23 01:33N 28°38' W 015°56'1414.1
2016-Jul-23 00:33N 28°29' W 016°09'4 1.0
2016-Jul-22 20:28N 28°29' W 016°13'1 0.4
2016-Jul-22 18:21N 28°29' W 016°14'6 7.1
2016-Jul-22 17:33N 28°26' W 016°08'1515.0
2016-Jul-22 16:34N 28°21' W 015°52'1615.7
2016-Jul-22 15:34N 28°16' W 015°35'1413.8
2016-Jul-22 14:34N 28°09' W 015°22'3 2.5
2016-Jul-22 13:33N 28°08' W 015°25'0 0.0
2016-Jul-22 12:33N 28°08' W 015°25'0 0.0
2016-Jul-22 11:33N 28°08' W 015°25'0 0.0
2016-Jul-22 10:32N 28°08' W 015°25'0 0.0
2016-Jul-22 09:32N 28°08' W 015°25'0 0.0
2016-Jul-22 08:32N 28°08' W 015°25'0 0.0
2016-Jul-22 07:32N 28°08' W 015°25'1 0.4
2016-Jul-22 04:33N 28°07' W 015°24'1312.7
2016-Jul-22 03:33N 28°13' W 015°12'1515.1
2016-Jul-22 02:33N 28°21' W 014°57'1515.2
2016-Jul-22 01:33N 28°28' W 014°42'1514.7
2016-Jul-22 00:33N 28°35' W 014°27'1514.7
2016-Jul-21 23:33N 28°42' W 014°12'1514.6
2016-Jul-21 22:33N 28°48' W 013°57'1414.1
2016-Jul-21 21:33N 28°52' W 013°41'1010.1
2016-Jul-21 20:31N 28°58' W 013°32'0 0.0
2016-Jul-21 19:31N 28°58' W 013°32'0 0.0
2016-Jul-21 18:31N 28°58' W 013°32'0 0.0
2016-Jul-21 17:31N 28°58' W 013°32'0 0.0
2016-Jul-21 16:31N 28°58' W 013°32'0 0.0
2016-Jul-21 15:31N 28°58' W 013°32'0 0.0
2016-Jul-21 14:25N 28°58' W 013°32'0 0.0
2016-Jul-21 13:31N 28°58' W 013°32'0 0.0
2016-Jul-21 12:22N 28°58' W 013°32'0 0.0
2016-Jul-21 11:19N 28°58' W 013°32'0 0.0
2016-Jul-21 10:19N 28°58' W 013°32'0 0.0
2016-Jul-21 09:22N 28°58' W 013°32'0 0.0
2016-Jul-21 08:16N 28°58' W 013°32'0 0.0
2016-Jul-21 07:28N 28°58' W 013°32'0 0.0
2016-Jul-21 06:19N 28°58' W 013°32'0 0.0
2016-Jul-21 05:31N 28°58' W 013°32'0 0.0
2016-Jul-21 04:31N 28°58' W 013°32'0 0.0
2016-Jul-21 03:31N 28°58' W 013°32'0 0.0
2016-Jul-21 02:13N 28°58' W 013°32'0 0.0
2016-Jul-21 01:31N 28°58' W 013°32'0 0.0
2016-Jul-21 00:31N 28°58' W 013°32'0 0.0
2016-Jul-20 23:31N 28°58' W 013°32'0 0.0
2016-Jul-20 22:22N 28°58' W 013°32'1 1.4
2016-Jul-20 21:33N 28°57' W 013°32'1111.0
2016-Jul-20 20:33N 28°51' W 013°43'1615.3
2016-Jul-20 19:31N 28°47' W 014°00'1614.6
2016-Jul-20 18:26N 28°40' W 014°16'1314.8
2016-Jul-20 17:33N 28°34' W 014°29'1515.1
2016-Jul-20 16:33N 28°27' W 014°45'1615.5
2016-Jul-20 15:33N 28°20' W 015°00'1615.5
2016-Jul-20 14:33N 28°11' W 015°15'10 9.2
2016-Jul-20 13:31N 28°08' W 015°25'0 0.0
2016-Jul-20 12:31N 28°08' W 015°25'0 0.0
2016-Jul-20 11:31N 28°08' W 015°25'0 0.0
2016-Jul-20 10:31N 28°08' W 015°25'0 0.0
2016-Jul-20 09:31N 28°08' W 015°25'0 0.0
2016-Jul-20 08:31N 28°08' W 015°25'0 0.0
2016-Jul-20 07:31N 28°08' W 015°25'0 0.0
2016-Jul-20 06:31N 28°08' W 015°25'0 0.0
2016-Jul-20 05:31N 28°08' W 015°25'1 1.5
2016-Jul-20 04:34N 28°08' W 015°23'  

Dump ship's entire track history